createdAt,value
2018-12-16T00:01:49.322Z,18.33
2018-12-16T00:04:17.737Z,20.97
2018-12-16T00:06:46.256Z,20.73
2018-12-16T00:09:14.820Z,20.33
2018-12-16T00:11:43.358Z,21.07
2018-12-16T00:14:11.913Z,21.53
2018-12-16T00:16:40.392Z,19.10
2018-12-16T00:19:08.861Z,22.00
2018-12-16T00:21:37.302Z,20.00
2018-12-16T00:24:05.813Z,16.03
2018-12-16T00:26:45.567Z,20.43
2018-12-16T00:29:14.102Z,22.30
2018-12-16T00:31:42.568Z,23.17
2018-12-16T00:34:11.030Z,12.13
2018-12-16T00:36:39.590Z,21.80
2018-12-16T00:39:08.235Z,22.53
2018-12-16T00:41:36.684Z,26.67
2018-12-16T00:44:05.200Z,20.10
2018-12-16T00:46:33.719Z,22.57
2018-12-16T00:49:02.176Z,22.37
2018-12-16T00:51:30.712Z,20.87
2018-12-16T00:53:59.140Z,24.63
2018-12-16T00:56:27.598Z,22.93
2018-12-16T00:58:56.186Z,23.73
2018-12-16T01:01:24.740Z,24.90
2018-12-16T01:03:53.234Z,23.20
2018-12-16T01:06:21.917Z,23.13
2018-12-16T01:08:50.563Z,18.60
2018-12-16T01:11:19.891Z,23.67
2018-12-16T01:13:48.383Z,23.77
2018-12-16T01:16:16.852Z,21.33
2018-12-16T01:18:45.372Z,22.43
2018-12-16T01:21:13.840Z,28.00
2018-12-16T01:23:42.333Z,20.93
2018-12-16T01:26:10.858Z,19.07
2018-12-16T01:28:39.286Z,19.53
2018-12-16T01:31:07.783Z,21.97
2018-12-16T01:33:36.401Z,23.23
2018-12-16T01:36:04.944Z,22.10
2018-12-16T01:38:33.384Z,25.93
2018-12-16T01:41:01.955Z,16.13
2018-12-16T01:43:30.408Z,24.17
2018-12-16T01:45:58.918Z,21.47
2018-12-16T01:48:27.364Z,18.80
2018-12-16T01:50:55.847Z,22.53
2018-12-16T01:53:24.366Z,21.50
2018-12-16T01:55:52.857Z,22.07
2018-12-16T01:58:21.301Z,22.87
2018-12-16T02:00:49.816Z,18.77
2018-12-16T02:03:18.286Z,21.87
2018-12-16T02:05:46.811Z,24.27
2018-12-16T02:08:15.313Z,16.87
2018-12-16T02:10:43.831Z,24.37
2018-12-16T02:13:12.297Z,20.50
2018-12-16T02:15:40.850Z,17.70
2018-12-16T02:18:09.348Z,21.57
2018-12-16T02:20:37.774Z,20.27
2018-12-16T02:23:06.430Z,25.70
2018-12-16T02:25:34.864Z,28.83
2018-12-16T02:28:03.431Z,30.50
2018-12-16T02:30:31.928Z,25.73
2018-12-16T02:33:00.424Z,28.83
2018-12-16T02:35:29.336Z,21.87
2018-12-16T02:37:57.796Z,23.03
2018-12-16T02:40:26.236Z,33.20
2018-12-16T02:42:54.979Z,31.70
2018-12-16T02:45:23.479Z,26.03
2018-12-16T02:47:52.004Z,28.93
2018-12-16T02:50:20.456Z,28.10
2018-12-16T02:52:48.942Z,29.63
2018-12-16T02:55:17.457Z,25.63
2018-12-16T02:57:45.959Z,26.30
2018-12-16T03:00:14.564Z,27.67
2018-12-16T03:02:43.086Z,27.13
2018-12-16T03:05:11.573Z,29.67
2018-12-16T03:07:40.022Z,27.43
2018-12-16T03:10:08.765Z,25.43
2018-12-16T03:12:37.257Z,19.70
2018-12-16T03:15:06.291Z,27.70
2018-12-16T03:17:34.882Z,26.43
2018-12-16T03:20:03.799Z,28.70
2018-12-16T03:22:32.237Z,25.07
2018-12-16T03:25:00.745Z,26.30
2018-12-16T03:27:29.254Z,31.23
2018-12-16T03:29:57.822Z,31.13
2018-12-16T03:32:26.299Z,28.47
2018-12-16T03:34:54.885Z,29.77
2018-12-16T03:37:23.361Z,27.63
2018-12-16T03:39:51.841Z,25.40
2018-12-16T03:42:20.282Z,30.80
2018-12-16T03:44:48.843Z,25.53
2018-12-16T03:47:17.343Z,27.70
2018-12-16T03:49:45.820Z,25.00
2018-12-16T03:52:14.326Z,30.03
2018-12-16T03:54:42.768Z,24.83
2018-12-16T03:57:11.371Z,21.27
2018-12-16T03:59:39.903Z,27.73
2018-12-16T04:02:08.371Z,31.73
2018-12-16T04:04:36.902Z,32.63
2018-12-16T04:07:05.549Z,28.80
2018-12-16T04:09:34.040Z,27.43
2018-12-16T04:12:03.294Z,27.53
2018-12-16T04:14:31.780Z,27.17
2018-12-16T04:17:00.262Z,29.50
2018-12-16T04:19:29.190Z,30.17
2018-12-16T04:21:57.681Z,32.90
2018-12-16T04:24:26.110Z,28.00
2018-12-16T04:26:54.599Z,30.40
2018-12-16T04:29:23.079Z,27.63
2018-12-16T04:31:51.538Z,31.87
2018-12-16T04:34:20.058Z,33.60
2018-12-16T04:36:48.661Z,30.97
2018-12-16T04:39:17.239Z,32.70
2018-12-16T04:41:45.686Z,32.77
2018-12-16T04:44:14.195Z,29.00
2018-12-16T04:46:42.632Z,33.87
2018-12-16T04:49:11.078Z,27.57
2018-12-16T04:51:39.804Z,25.53
2018-12-16T04:54:08.288Z,31.97
2018-12-16T04:56:36.728Z,32.37
2018-12-16T04:59:05.179Z,34.67
2018-12-16T05:01:33.677Z,32.77
2018-12-16T05:04:02.144Z,31.90
2018-12-16T05:06:30.686Z,34.60
2018-12-16T05:08:59.211Z,33.53
2018-12-16T05:11:27.668Z,32.67
2018-12-16T05:13:56.707Z,30.50
2018-12-16T05:16:25.160Z,32.43
2018-12-16T05:18:53.627Z,28.50
2018-12-16T05:21:22.122Z,36.00
2018-12-16T05:23:50.562Z,34.47
2018-12-16T05:26:19.751Z,32.60
2018-12-16T05:28:48.236Z,34.73
2018-12-16T05:31:16.714Z,35.73
2018-12-16T05:33:45.208Z,29.57
2018-12-16T05:36:13.869Z,30.93
2018-12-16T05:38:42.386Z,21.53
2018-12-16T05:41:10.904Z,31.03
2018-12-16T05:43:39.388Z,26.37
2018-12-16T05:46:07.885Z,31.73
2018-12-16T05:48:36.342Z,32.93
2018-12-16T05:51:05.350Z,35.47
2018-12-16T05:53:34.982Z,28.63
2018-12-16T05:56:03.425Z,34.83
2018-12-16T05:58:31.887Z,31.57
2018-12-16T06:01:00.382Z,32.83
2018-12-16T06:03:29.039Z,32.07
2018-12-16T06:05:57.569Z,34.97
2018-12-16T06:08:26.099Z,35.50
2018-12-16T06:10:54.600Z,31.70
2018-12-16T06:13:23.071Z,32.37
2018-12-16T06:15:51.538Z,30.70
2018-12-16T06:18:20.041Z,30.60
2018-12-16T06:20:48.559Z,26.27
2018-12-16T06:23:17.187Z,24.30
2018-12-16T06:25:45.790Z,23.17
2018-12-16T06:28:14.259Z,32.40
2018-12-16T06:30:43.189Z,26.80
2018-12-16T06:33:11.757Z,31.70
2018-12-16T06:35:40.236Z,34.50
2018-12-16T06:38:08.712Z,23.73
2018-12-16T06:40:37.145Z,26.53
2018-12-16T06:43:05.586Z,31.93
2018-12-16T06:45:34.066Z,26.70
2018-12-16T06:48:02.507Z,26.67
2018-12-16T06:50:31.070Z,37.40
2018-12-16T06:52:59.528Z,27.67
2018-12-16T06:55:28.065Z,27.00
2018-12-16T06:57:56.512Z,32.87
2018-12-16T07:00:25.108Z,29.20
2018-12-16T07:02:54.364Z,30.03
2018-12-16T07:05:22.899Z,32.90
2018-12-16T07:07:51.404Z,28.73
2018-12-16T07:10:20.088Z,35.17
2018-12-16T07:12:48.571Z,32.13
2018-12-16T07:15:17.156Z,27.53
2018-12-16T07:17:45.655Z,29.43
2018-12-16T07:20:14.270Z,22.87
2018-12-16T07:22:42.786Z,30.97
2018-12-16T07:25:11.251Z,25.43
2018-12-16T07:27:39.850Z,32.57
2018-12-16T07:30:08.998Z,30.27
2018-12-16T07:32:37.464Z,30.93
2018-12-16T07:35:06.057Z,27.33
2018-12-16T07:37:34.544Z,34.43
2018-12-16T07:40:03.244Z,29.03
2018-12-16T07:42:31.812Z,25.53
2018-12-16T07:45:00.281Z,28.80
2018-12-16T07:47:29.136Z,28.27
2018-12-16T07:49:57.794Z,26.93
2018-12-16T07:52:26.245Z,32.40
2018-12-16T07:54:54.761Z,31.17
2018-12-16T07:57:23.311Z,24.87
2018-12-16T07:59:52.001Z,25.90
2018-12-16T08:02:20.555Z,29.03
2018-12-16T08:04:49.242Z,23.93
2018-12-16T08:07:17.803Z,26.00
2018-12-16T08:09:46.288Z,32.60
2018-12-16T08:12:14.885Z,29.50
2018-12-16T08:14:43.573Z,31.13
2018-12-16T08:17:12.196Z,30.07
2018-12-16T08:19:40.834Z,35.90
2018-12-16T08:22:09.358Z,30.43
2018-12-16T08:24:37.845Z,31.97
2018-12-16T08:27:06.428Z,24.23
2018-12-16T08:29:35.238Z,32.63
2018-12-16T08:32:03.859Z,29.77
2018-12-16T08:34:32.497Z,32.37
2018-12-16T08:37:00.996Z,29.47
2018-12-16T08:39:29.526Z,30.97
2018-12-16T08:41:58.007Z,31.23
2018-12-16T08:44:26.531Z,32.30
2018-12-16T08:46:55.020Z,35.50
2018-12-16T08:49:23.674Z,31.13
2018-12-16T08:51:52.303Z,31.63
2018-12-16T08:54:20.878Z,35.17
2018-12-16T08:56:49.361Z,28.47
2018-12-16T08:59:17.921Z,34.00
2018-12-16T09:01:46.335Z,33.30
2018-12-16T09:04:15.200Z,25.60
2018-12-16T09:06:43.663Z,34.87
2018-12-16T09:09:12.616Z,35.53
2018-12-16T09:11:41.390Z,34.10
2018-12-16T09:14:09.872Z,35.67
2018-12-16T09:16:38.299Z,31.40
2018-12-16T09:19:07.034Z,31.97
2018-12-16T09:21:35.479Z,35.20
2018-12-16T09:24:04.085Z,36.93
2018-12-16T09:26:32.612Z,35.90
2018-12-16T09:29:01.110Z,35.87
2018-12-16T09:31:29.572Z,38.13
2018-12-16T09:33:58.132Z,36.87
2018-12-16T09:36:26.555Z,38.00
2018-12-16T09:38:55.036Z,37.47
2018-12-16T09:41:23.592Z,41.33
2018-12-16T09:43:52.167Z,38.53
2018-12-16T09:46:20.651Z,38.27
2018-12-16T09:48:49.132Z,37.90
2018-12-16T09:51:18.218Z,30.27
2018-12-16T09:53:46.757Z,39.80
2018-12-16T09:56:15.221Z,36.43
2018-12-16T09:58:43.773Z,37.87
2018-12-16T10:01:12.233Z,33.57
2018-12-16T10:03:40.712Z,38.27
2018-12-16T10:06:09.219Z,39.77
2018-12-16T10:08:37.936Z,37.80
2018-12-16T10:11:06.630Z,39.73
2018-12-16T10:13:35.240Z,34.80
2018-12-16T10:16:03.902Z,39.73
2018-12-16T10:18:32.418Z,31.00
2018-12-16T10:21:00.915Z,31.30
2018-12-16T10:23:29.526Z,33.47
2018-12-16T10:25:58.342Z,39.13
2018-12-16T10:28:26.927Z,35.70
2018-12-16T10:30:55.487Z,33.23
2018-12-16T10:33:24.046Z,35.13
2018-12-16T10:35:52.515Z,37.13
2018-12-16T10:38:21.071Z,33.83
2018-12-16T10:40:49.770Z,41.07
2018-12-16T10:43:18.240Z,32.67
2018-12-16T10:45:46.814Z,27.73
2018-12-16T10:48:15.446Z,34.67
2018-12-16T10:50:43.957Z,31.90
2018-12-16T10:53:12.493Z,35.43
2018-12-16T10:55:41.302Z,38.63
2018-12-16T10:58:09.977Z,38.27
2018-12-16T11:00:43.952Z,36.70
2018-12-16T11:03:12.780Z,37.97
2018-12-16T11:05:41.653Z,40.00
2018-12-16T11:08:10.316Z,34.47
2018-12-16T11:10:39.326Z,35.37
2018-12-16T11:13:08.350Z,34.87
2018-12-16T11:15:36.886Z,29.70
2018-12-16T11:18:05.423Z,35.67
2018-12-16T11:20:34.004Z,36.07
2018-12-16T11:23:02.693Z,33.40
2018-12-16T11:25:32.107Z,36.07
2018-12-16T11:28:00.535Z,35.63
2018-12-16T11:30:29.435Z,36.47
2018-12-16T11:32:57.909Z,30.07
2018-12-16T11:35:26.557Z,38.37
2018-12-16T11:37:55.189Z,36.93
2018-12-16T11:40:23.774Z,36.30
2018-12-16T11:42:52.352Z,38.17
2018-12-16T11:45:20.936Z,39.27
2018-12-16T11:47:49.728Z,34.10
2018-12-16T11:50:19.090Z,39.47
2018-12-16T11:52:47.578Z,36.17
2018-12-16T11:55:16.329Z,36.23
2018-12-16T11:57:45.460Z,40.90
2018-12-16T12:00:14.140Z,37.70
2018-12-16T12:02:42.595Z,36.17
2018-12-16T12:05:11.394Z,35.40
2018-12-16T12:07:40.350Z,33.67
2018-12-16T12:10:09.134Z,43.03
2018-12-16T12:12:37.668Z,41.63
2018-12-16T12:15:06.469Z,37.83
2018-12-16T12:17:35.043Z,49.30
2018-12-16T12:20:04.176Z,45.73
2018-12-16T12:22:32.684Z,44.50
2018-12-16T12:25:01.195Z,34.80
2018-12-16T12:27:29.706Z,41.70
2018-12-16T12:29:58.300Z,29.80
2018-12-16T12:32:26.858Z,42.73
2018-12-16T12:34:55.827Z,50.03
2018-12-16T12:37:24.314Z,41.00
2018-12-16T12:39:52.892Z,48.10
2018-12-16T12:42:21.440Z,46.40
2018-12-16T12:44:49.951Z,39.13
2018-12-16T12:47:18.556Z,41.37
2018-12-16T12:49:47.040Z,41.77
2018-12-16T12:52:15.538Z,46.53
2018-12-16T12:54:44.269Z,43.30
2018-12-16T12:57:12.817Z,39.63
2018-12-16T12:59:41.409Z,43.27
2018-12-16T13:02:09.948Z,39.40
2018-12-16T13:04:38.471Z,39.20
2018-12-16T13:07:06.977Z,43.03
2018-12-16T13:09:35.446Z,37.80
2018-12-16T13:12:03.910Z,45.07
2018-12-16T13:14:32.416Z,42.53
2018-12-16T13:17:00.980Z,41.60
2018-12-16T13:19:30.130Z,43.47
2018-12-16T13:21:58.628Z,46.90
2018-12-16T13:24:27.114Z,46.00
2018-12-16T13:26:55.909Z,48.27
2018-12-16T13:29:24.548Z,42.87
2018-12-16T13:31:53.038Z,42.90
2018-12-16T13:34:21.806Z,49.13
2018-12-16T13:36:50.247Z,47.33
2018-12-16T13:39:18.799Z,37.37
2018-12-16T13:41:47.419Z,43.77
2018-12-16T13:44:15.940Z,46.27
2018-12-16T13:46:44.502Z,45.80
2018-12-16T13:49:12.965Z,49.03
2018-12-16T13:51:41.487Z,44.10
2018-12-16T13:54:10.709Z,45.03
2018-12-16T13:56:39.183Z,37.60
2018-12-16T13:59:07.640Z,43.67
2018-12-16T14:01:36.165Z,44.63
2018-12-16T14:04:04.714Z,52.47
2018-12-16T14:06:33.233Z,46.60
2018-12-16T14:09:02.169Z,42.37
2018-12-16T14:11:30.880Z,48.67
2018-12-16T14:13:59.489Z,49.10
2018-12-16T14:16:28.034Z,51.17
2018-12-16T14:18:56.561Z,44.63
2018-12-16T14:21:25.114Z,55.37
2018-12-16T14:23:53.590Z,47.47
2018-12-16T14:26:22.213Z,47.10
2018-12-16T14:28:50.724Z,48.87
2018-12-16T14:31:19.220Z,51.47
2018-12-16T14:33:48.559Z,48.43
2018-12-16T14:36:17.595Z,52.67
2018-12-16T14:38:47.287Z,52.40
2018-12-16T14:41:15.759Z,49.50
2018-12-16T14:43:44.367Z,50.40
2018-12-16T14:46:12.906Z,52.40
2018-12-16T14:48:41.444Z,53.73
2018-12-16T14:51:09.938Z,50.73
2018-12-16T14:53:38.544Z,55.00
2018-12-16T14:56:07.065Z,51.83
2018-12-16T14:58:35.718Z,51.77
2018-12-16T15:01:04.292Z,49.20
2018-12-16T15:03:32.972Z,53.60
2018-12-16T15:06:01.606Z,48.70
2018-12-16T15:08:30.124Z,49.77
2018-12-16T15:10:58.901Z,50.13
2018-12-16T15:13:27.395Z,43.57
2018-12-16T15:15:55.902Z,49.27
2018-12-16T15:18:24.334Z,50.00
2018-12-16T15:20:52.890Z,50.63
2018-12-16T15:23:22.045Z,44.40
2018-12-16T15:25:50.538Z,44.37
2018-12-16T15:28:19.188Z,42.20
2018-12-16T15:30:47.839Z,46.10
2018-12-16T15:33:16.301Z,41.90
2018-12-16T15:35:45.788Z,52.13
2018-12-16T15:38:14.291Z,52.63
2018-12-16T15:40:42.814Z,49.10
2018-12-16T15:43:11.281Z,50.10
2018-12-16T15:45:39.901Z,53.33
2018-12-16T15:48:08.367Z,49.80
2018-12-16T15:50:36.874Z,46.03
2018-12-16T15:53:05.563Z,48.13
2018-12-16T15:55:34.110Z,46.27
2018-12-16T15:58:02.646Z,43.10
2018-12-16T16:00:31.487Z,43.07
2018-12-16T16:03:00.017Z,46.27
2018-12-16T16:05:28.460Z,46.90
2018-12-16T16:07:57.240Z,44.20
2018-12-16T16:10:25.859Z,46.70
2018-12-16T16:12:55.045Z,46.67
2018-12-16T16:15:23.937Z,44.47
2018-12-16T16:17:53.416Z,46.17
2018-12-16T16:20:21.988Z,45.80
2018-12-16T16:22:51.281Z,47.90
2018-12-16T16:25:19.732Z,41.07
2018-12-16T16:27:49.254Z,46.83
2018-12-16T16:30:18.414Z,42.83
2018-12-16T16:32:46.935Z,52.00
2018-12-16T16:35:15.446Z,51.50
2018-12-16T16:37:44.206Z,50.37
2018-12-16T16:40:12.838Z,49.73
2018-12-16T16:42:41.343Z,47.63
2018-12-16T16:45:10.036Z,46.80
2018-12-16T16:47:38.656Z,40.57
2018-12-16T16:50:07.479Z,47.37
2018-12-16T16:52:36.148Z,41.93
2018-12-16T16:55:04.987Z,42.37
2018-12-16T16:57:33.526Z,44.37
2018-12-16T17:00:02.169Z,43.13
2018-12-16T17:02:30.636Z,45.27
2018-12-16T17:04:59.118Z,44.77
2018-12-16T17:07:27.634Z,41.50
2018-12-16T17:09:56.258Z,42.53
2018-12-16T17:12:24.696Z,42.90
2018-12-16T17:14:53.201Z,41.57
2018-12-16T17:17:22.381Z,45.37
2018-12-16T17:19:51.446Z,44.83
2018-12-16T17:22:19.872Z,42.90
2018-12-16T17:24:48.335Z,48.30
2018-12-16T17:27:16.845Z,44.60
2018-12-16T17:29:45.398Z,39.00
2018-12-16T17:32:13.840Z,35.50
2018-12-16T17:34:42.298Z,39.80
2018-12-16T17:37:10.890Z,40.57
2018-12-16T17:39:40.520Z,36.43
2018-12-16T17:42:09.031Z,42.87
2018-12-16T17:44:37.714Z,40.43
2018-12-16T17:47:06.337Z,37.03
2018-12-16T17:49:34.873Z,37.93
2018-12-16T17:52:03.428Z,40.67
2018-12-16T17:54:31.900Z,38.13
2018-12-16T17:57:00.695Z,29.93
2018-12-16T17:59:29.206Z,37.77
2018-12-16T18:01:58.125Z,39.33
2018-12-16T18:04:26.635Z,36.30
2018-12-16T18:06:55.162Z,37.33
2018-12-16T18:09:23.693Z,33.80
2018-12-16T18:11:52.286Z,38.53
2018-12-16T18:14:20.786Z,34.53
2018-12-16T18:16:49.336Z,35.23
2018-12-16T18:19:18.259Z,37.27
2018-12-16T18:21:46.755Z,38.33
2018-12-16T18:24:15.194Z,36.13
2018-12-16T18:26:44.341Z,34.23
2018-12-16T18:29:13.063Z,34.30
2018-12-16T18:31:41.529Z,39.30
2018-12-16T18:34:10.003Z,37.47
2018-12-16T18:36:39.263Z,34.00
2018-12-16T18:39:09.808Z,39.00
2018-12-16T18:41:39.298Z,35.73
2018-12-16T18:44:08.610Z,35.10
2018-12-16T18:46:37.122Z,37.27
2018-12-16T18:49:05.857Z,38.80
2018-12-16T18:51:34.844Z,43.37
2018-12-16T18:54:03.346Z,37.07
2018-12-16T18:56:32.131Z,35.23
2018-12-16T18:59:00.674Z,35.80
2018-12-16T19:01:29.162Z,39.13
2018-12-16T19:03:58.290Z,39.13
2018-12-16T19:06:26.835Z,40.50
2018-12-16T19:08:55.450Z,38.37
2018-12-16T19:11:23.992Z,33.93
2018-12-16T19:13:52.574Z,34.17
2018-12-16T19:16:21.194Z,38.57
2018-12-16T19:18:50.356Z,37.43
2018-12-16T19:21:18.872Z,39.67
2018-12-16T19:23:47.368Z,35.93
2018-12-16T19:26:16.063Z,35.17
2018-12-16T19:28:45.180Z,35.87
2018-12-16T19:31:13.731Z,30.13
2018-12-16T19:33:42.177Z,36.80
2018-12-16T19:36:10.712Z,35.53
2018-12-16T19:38:39.181Z,32.63
2018-12-16T19:41:07.715Z,35.83
2018-12-16T19:43:36.361Z,34.37
2018-12-16T19:46:05.214Z,29.73
2018-12-16T19:48:34.488Z,31.70
2018-12-16T19:51:03.304Z,32.50
2018-12-16T19:53:31.765Z,27.23
2018-12-16T19:56:00.238Z,30.03
2018-12-16T19:58:29.175Z,31.07
2018-12-16T20:00:57.633Z,30.40
2018-12-16T20:03:26.160Z,27.27
2018-12-16T20:05:59.922Z,27.07
2018-12-16T20:08:28.471Z,33.13
2018-12-16T20:10:57.490Z,23.50
2018-12-16T20:13:26.002Z,29.80
2018-12-16T20:16:01.370Z,29.13
2018-12-16T20:18:25.494Z,31.20
2018-12-16T20:20:54.560Z,33.50
2018-12-16T20:23:23.105Z,27.47
2018-12-16T20:25:52.068Z,28.53
2018-12-16T20:28:21.195Z,29.27
2018-12-16T20:30:49.724Z,24.10
2018-12-16T20:33:18.597Z,31.93
2018-12-16T20:35:47.076Z,23.30
2018-12-16T20:38:15.843Z,23.13
2018-12-16T20:40:45.150Z,30.13
2018-12-16T20:43:14.821Z,27.17
2018-12-16T20:45:43.515Z,29.77
2018-12-16T20:48:12.108Z,30.37
2018-12-16T20:50:40.570Z,29.47
2018-12-16T20:53:09.073Z,29.53
2018-12-16T20:55:37.694Z,28.73
2018-12-16T20:58:06.124Z,25.43
2018-12-16T21:00:35.379Z,30.40
2018-12-16T21:03:03.896Z,26.07
2018-12-16T21:05:32.999Z,27.50
2018-12-16T21:08:01.655Z,33.27
2018-12-16T21:10:30.389Z,28.17
2018-12-16T21:13:04.044Z,30.40
2018-12-16T21:15:37.795Z,26.93
2018-12-16T21:18:12.084Z,23.37
2018-12-16T21:20:40.622Z,22.70
2018-12-16T21:23:09.130Z,23.00
2018-12-16T21:25:37.647Z,21.80
2018-12-16T21:28:06.759Z,24.50
2018-12-16T21:30:35.243Z,23.80
2018-12-16T21:33:03.755Z,22.93
2018-12-16T21:35:33.216Z,23.87
2018-12-16T21:38:01.695Z,24.07
2018-12-16T21:40:30.342Z,27.63
2018-12-16T21:42:58.811Z,25.97
2018-12-16T21:45:27.271Z,23.57
2018-12-16T21:47:55.725Z,23.27
2018-12-16T21:50:24.162Z,22.87
2018-12-16T21:52:52.665Z,24.63
2018-12-16T21:55:21.128Z,21.67
2018-12-16T21:57:49.618Z,19.03
2018-12-16T22:00:18.122Z,18.00
2018-12-16T22:02:46.594Z,24.30
2018-12-16T22:05:15.968Z,24.77
2018-12-16T22:07:45.456Z,20.87
2018-12-16T22:10:14.034Z,24.83
2018-12-16T22:12:43.475Z,18.30
2018-12-16T22:15:11.934Z,24.53
2018-12-16T22:17:40.602Z,23.63
2018-12-16T22:20:09.154Z,26.13
2018-12-16T22:22:37.646Z,21.50
2018-12-16T22:25:06.197Z,22.30
2018-12-16T22:27:40.176Z,24.70
2018-12-16T22:30:05.913Z,23.60
2018-12-16T22:32:34.383Z,23.63
2018-12-16T22:35:03.540Z,24.20
2018-12-16T22:37:32.173Z,27.87
2018-12-16T22:40:00.647Z,26.67
2018-12-16T22:42:29.254Z,26.70
2018-12-16T22:44:57.708Z,26.03
2018-12-16T22:47:27.358Z,25.63
2018-12-16T22:49:55.956Z,23.87
2018-12-16T22:52:24.380Z,32.27
2018-12-16T22:54:52.842Z,31.07
2018-12-16T22:57:21.304Z,24.50
2018-12-16T22:59:50.466Z,26.33
2018-12-16T23:02:18.905Z,28.77
2018-12-16T23:04:47.457Z,28.63
2018-12-16T23:07:15.992Z,27.90
2018-12-16T23:09:44.477Z,27.57
2018-12-16T23:12:13.103Z,28.30
2018-12-16T23:14:41.855Z,31.83
2018-12-16T23:17:10.512Z,31.00
2018-12-16T23:19:39.564Z,29.23
2018-12-16T23:22:08.044Z,27.17
2018-12-16T23:24:36.946Z,39.30
2018-12-16T23:27:05.438Z,25.37
2018-12-16T23:29:33.928Z,27.47
2018-12-16T23:32:02.420Z,28.97
2018-12-16T23:34:30.937Z,31.00
2018-12-16T23:36:59.491Z,23.17
2018-12-16T23:39:27.952Z,28.63
2018-12-16T23:41:56.475Z,26.63
2018-12-16T23:44:31.703Z,26.70
2018-12-16T23:47:00.211Z,25.50
2018-12-16T23:49:28.654Z,23.90
2018-12-16T23:51:57.132Z,23.53
2018-12-16T23:54:25.591Z,28.93
2018-12-16T23:56:54.107Z,23.50
2018-12-16T23:59:22.644Z,23.37
